sensor_id;sensor_type;location;lat;lon;timestamp;pressure;altitude;pressure_sealevel;temperature;humidity
69980;BME280;57318;56.232;43.944;2023-11-21T00:00:00;98243.16;;;-5.85;73.53
69980;BME280;57318;56.232;43.944;2023-11-21T00:02:27;98238.84;;;-5.85;73.46
69980;BME280;57318;56.232;43.944;2023-11-21T00:04:53;98246.59;;;-5.85;73.58
69980;BME280;57318;56.232;43.944;2023-11-21T00:07:19;98242.09;;;-5.80;73.77
69980;BME280;57318;56.232;43.944;2023-11-21T00:09:46;98241.44;;;-5.85;73.35
69980;BME280;57318;56.232;43.944;2023-11-21T00:12:12;98239.53;;;-5.80;73.47
69980;BME280;57318;56.232;43.944;2023-11-21T00:14:39;98233.34;;;-5.75;73.68
69980;BME280;57318;56.232;43.944;2023-11-21T00:17:05;98229.06;;;-5.76;73.07
69980;BME280;57318;56.232;43.944;2023-11-21T00:19:32;98228.00;;;-5.71;73.30
69980;BME280;57318;56.232;43.944;2023-11-21T00:21:58;98230.69;;;-5.74;73.24
69980;BME280;57318;56.232;43.944;2023-11-21T00:24:25;98229.84;;;-5.74;73.01
69980;BME280;57318;56.232;43.944;2023-11-21T00:26:51;98240.34;;;-5.79;73.17
69980;BME280;57318;56.232;43.944;2023-11-21T00:29:17;98234.34;;;-5.80;73.07
69980;BME280;57318;56.232;43.944;2023-11-21T00:31:44;98237.91;;;-5.84;73.32
69980;BME280;57318;56.232;43.944;2023-11-21T00:34:11;98227.47;;;-5.81;73.18
69980;BME280;57318;56.232;43.944;2023-11-21T00:36:37;98231.03;;;-5.83;72.90
69980;BME280;57318;56.232;43.944;2023-11-21T00:39:03;98221.66;;;-5.87;73.19
69980;BME280;57318;56.232;43.944;2023-11-21T00:41:29;98210.34;;;-5.83;73.28
69980;BME280;57318;56.232;43.944;2023-11-21T00:43:55;98208.72;;;-5.87;73.45
69980;BME280;57318;56.232;43.944;2023-11-21T00:46:21;98208.69;;;-5.86;73.09
69980;BME280;57318;56.232;43.944;2023-11-21T00:48:46;98202.81;;;-5.91;73.45
69980;BME280;57318;56.232;43.944;2023-11-21T00:51:12;98200.38;;;-5.95;73.43
69980;BME280;57318;56.232;43.944;2023-11-21T00:53:38;98196.34;;;-6.03;73.52
69980;BME280;57318;56.232;43.944;2023-11-21T00:56:05;98202.06;;;-5.94;73.47
69980;BME280;57318;56.232;43.944;2023-11-21T00:58:30;98199.38;;;-5.91;73.36
69980;BME280;57318;56.232;43.944;2023-11-21T01:00:56;98203.56;;;-5.87;73.13
69980;BME280;57318;56.232;43.944;2023-11-21T01:03:23;98203.41;;;-5.83;73.48
69980;BME280;57318;56.232;43.944;2023-11-21T01:05:48;98200.13;;;-5.88;73.26
69980;BME280;57318;56.232;43.944;2023-11-21T01:08:15;98197.31;;;-5.82;73.26
69980;BME280;57318;56.232;43.944;2023-11-21T01:10:41;98198.53;;;-5.92;72.96
69980;BME280;57318;56.232;43.944;2023-11-21T01:13:07;98196.69;;;-5.88;73.37
69980;BME280;57318;56.232;43.944;2023-11-21T01:15:34;98203.41;;;-5.83;73.01
69980;BME280;57318;56.232;43.944;2023-11-21T01:17:59;98192.84;;;-5.76;73.04
69980;BME280;57318;56.232;43.944;2023-11-21T01:20:25;98200.72;;;-5.80;73.02
69980;BME280;57318;56.232;43.944;2023-11-21T01:22:51;98193.47;;;-5.70;73.25
69980;BME280;57318;56.232;43.944;2023-11-21T01:25:17;98197.78;;;-5.69;73.26
69980;BME280;57318;56.232;43.944;2023-11-21T01:27:43;98193.63;;;-5.74;72.76
69980;BME280;57318;56.232;43.944;2023-11-21T01:30:09;98205.69;;;-5.73;72.89
69980;BME280;57318;56.232;43.944;2023-11-21T01:32:38;98202.22;;;-5.74;73.32
69980;BME280;57318;56.232;43.944;2023-11-21T01:35:04;98205.53;;;-5.69;72.89
69980;BME280;57318;56.232;43.944;2023-11-21T01:37:31;98202.63;;;-5.85;73.55
69980;BME280;57318;56.232;43.944;2023-11-21T01:39:58;98200.63;;;-5.76;73.15
69980;BME280;57318;56.232;43.944;2023-11-21T01:42:24;98202.28;;;-5.75;73.49
69980;BME280;57318;56.232;43.944;2023-11-21T01:44:50;98189.88;;;-5.91;73.57
69980;BME280;57318;56.232;43.944;2023-11-21T01:47:17;98199.53;;;-5.96;73.99
69980;BME280;57318;56.232;43.944;2023-11-21T01:49:44;98202.28;;;-6.01;74.54
69980;BME280;57318;56.232;43.944;2023-11-21T01:52:11;98198.72;;;-5.96;74.68
69980;BME280;57318;56.232;43.944;2023-11-21T01:54:37;98189.41;;;-6.02;74.78
69980;BME280;57318;56.232;43.944;2023-11-21T01:57:04;98186.72;;;-5.99;75.02
69980;BME280;57318;56.232;43.944;2023-11-21T01:59:36;98182.97;;;-6.15;75.77
69980;BME280;57318;56.232;43.944;2023-11-21T02:02:05;98182.38;;;-6.24;76.15
69980;BME280;57318;56.232;43.944;2023-11-21T02:04:35;98182.22;;;-6.19;75.92
69980;BME280;57318;56.232;43.944;2023-11-21T02:07:04;98183.16;;;-6.22;76.65
69980;BME280;57318;56.232;43.944;2023-11-21T02:09:33;98188.91;;;-6.13;76.13
69980;BME280;57318;56.232;43.944;2023-11-21T02:12:00;98185.31;;;-6.08;76.46
69980;BME280;57318;56.232;43.944;2023-11-21T02:14:26;98193.75;;;-6.03;76.40
69980;BME280;57318;56.232;43.944;2023-11-21T02:16:55;98198.03;;;-6.02;76.35
69980;BME280;57318;56.232;43.944;2023-11-21T02:19:23;98193.78;;;-6.04;76.67
69980;BME280;57318;56.232;43.944;2023-11-21T02:21:52;98193.69;;;-6.01;76.77
69980;BME280;57318;56.232;43.944;2023-11-21T02:24:22;98196.22;;;-6.00;76.77
69980;BME280;57318;56.232;43.944;2023-11-21T02:26:48;98195.94;;;-5.92;76.64
69980;BME280;57318;56.232;43.944;2023-11-21T02:29:20;98197.50;;;-5.86;76.36
69980;BME280;57318;56.232;43.944;2023-11-21T02:31:53;98197.78;;;-5.69;76.37
69980;BME280;57318;56.232;43.944;2023-11-21T02:34:21;98204.56;;;-5.66;76.46
69980;BME280;57318;56.232;43.944;2023-11-21T02:36:46;98198.28;;;-5.59;76.29
69980;BME280;57318;56.232;43.944;2023-11-21T02:39:16;98199.22;;;-5.62;76.08
69980;BME280;57318;56.232;43.944;2023-11-21T02:41:43;98201.66;;;-5.57;75.72
69980;BME280;57318;56.232;43.944;2023-11-21T02:44:09;98196.28;;;-5.51;75.70
69980;BME280;57318;56.232;43.944;2023-11-21T02:46:36;98198.06;;;-5.53;76.14
69980;BME280;57318;56.232;43.944;2023-11-21T02:49:02;98191.97;;;-5.52;75.93
69980;BME280;57318;56.232;43.944;2023-11-21T02:51:29;98190.88;;;-5.45;75.89
69980;BME280;57318;56.232;43.944;2023-11-21T02:53:56;98201.25;;;-5.45;75.87
69980;BME280;57318;56.232;43.944;2023-11-21T02:56:26;98202.81;;;-5.40;76.08
69980;BME280;57318;56.232;43.944;2023-11-21T02:58:52;98203.72;;;-5.41;76.06
69980;BME280;57318;56.232;43.944;2023-11-21T03:01:18;98204.59;;;-5.43;76.09
69980;BME280;57318;56.232;43.944;2023-11-21T03:03:44;98207.19;;;-5.43;75.98
69980;BME280;57318;56.232;43.944;2023-11-21T03:06:09;98198.31;;;-5.35;76.32
69980;BME280;57318;56.232;43.944;2023-11-21T03:08:36;98195.69;;;-5.34;76.12
69980;BME280;57318;56.232;43.944;2023-11-21T03:11:01;98190.50;;;-5.34;75.81
69980;BME280;57318;56.232;43.944;2023-11-21T03:13:30;98197.22;;;-5.28;75.90
69980;BME280;57318;56.232;43.944;2023-11-21T03:15:56;98192.03;;;-5.28;76.08
69980;BME280;57318;56.232;43.944;2023-11-21T03:18:21;98189.50;;;-5.30;76.26
69980;BME280;57318;56.232;43.944;2023-11-21T03:20:52;98185.78;;;-5.22;76.15
69980;BME280;57318;56.232;43.944;2023-11-21T03:23:18;98194.28;;;-5.19;76.00
69980;BME280;57318;56.232;43.944;2023-11-21T03:25:44;98192.44;;;-5.15;76.20
69980;BME280;57318;56.232;43.944;2023-11-21T03:28:09;98183.69;;;-5.13;76.16
69980;BME280;57318;56.232;43.944;2023-11-21T03:30:35;98179.31;;;-5.11;76.26
69980;BME280;57318;56.232;43.944;2023-11-21T03:33:01;98187.03;;;-5.09;76.51
69980;BME280;57318;56.232;43.944;2023-11-21T03:35:26;98194.75;;;-5.08;76.37
69980;BME280;57318;56.232;43.944;2023-11-21T03:37:53;98186.16;;;-5.10;76.21
69980;BME280;57318;56.232;43.944;2023-11-21T03:40:19;98182.75;;;-5.10;75.88
69980;BME280;57318;56.232;43.944;2023-11-21T03:42:47;98181.09;;;-5.13;76.31
69980;BME280;57318;56.232;43.944;2023-11-21T03:45:12;98174.97;;;-5.10;76.00
69980;BME280;57318;56.232;43.944;2023-11-21T03:47:43;98179.97;;;-5.05;76.09
69980;BME280;57318;56.232;43.944;2023-11-21T03:50:09;98189.34;;;-5.01;75.90
69980;BME280;57318;56.232;43.944;2023-11-21T03:52:35;98181.44;;;-4.98;75.73
69980;BME280;57318;56.232;43.944;2023-11-21T03:55:01;98192.81;;;-5.02;75.89
69980;BME280;57318;56.232;43.944;2023-11-21T03:57:29;98192.03;;;-5.04;75.92
69980;BME280;57318;56.232;43.944;2023-11-21T03:59:55;98191.13;;;-5.03;75.61
69980;BME280;57318;56.232;43.944;2023-11-21T04:02:20;98197.16;;;-5.03;75.83
69980;BME280;57318;56.232;43.944;2023-11-21T04:04:46;98205.00;;;-5.04;75.65
69980;BME280;57318;56.232;43.944;2023-11-21T04:07:12;98206.78;;;-5.07;75.63
69980;BME280;57318;56.232;43.944;2023-11-21T04:09:39;98211.19;;;-5.09;75.35
69980;BME280;57318;56.232;43.944;2023-11-21T04:12:05;98203.06;;;-4.99;75.65
69980;BME280;57318;56.232;43.944;2023-11-21T04:14:31;98208.25;;;-4.99;75.72
69980;BME280;57318;56.232;43.944;2023-11-21T04:16:57;98204.13;;;-5.05;75.83
69980;BME280;57318;56.232;43.944;2023-11-21T04:19:23;98208.25;;;-4.99;75.53
69980;BME280;57318;56.232;43.944;2023-11-21T04:21:49;98212.41;;;-4.95;75.62
69980;BME280;57318;56.232;43.944;2023-11-21T04:24:14;98210.72;;;-4.96;75.58
69980;BME280;57318;56.232;43.944;2023-11-21T04:26:40;98221.81;;;-4.93;75.68
69980;BME280;57318;56.232;43.944;2023-11-21T04:29:06;98213.22;;;-4.93;75.67
69980;BME280;57318;56.232;43.944;2023-11-21T04:31:31;98209.66;;;-4.91;75.38
69980;BME280;57318;56.232;43.944;2023-11-21T04:33:57;98210.50;;;-4.90;75.93
69980;BME280;57318;56.232;43.944;2023-11-21T04:36:23;98214.66;;;-4.86;75.52
69980;BME280;57318;56.232;43.944;2023-11-21T04:38:48;98218.94;;;-4.85;75.36
69980;BME280;57318;56.232;43.944;2023-11-21T04:41:14;98215.47;;;-4.84;75.37
69980;BME280;57318;56.232;43.944;2023-11-21T04:43:40;98208.81;;;-4.91;75.55
69980;BME280;57318;56.232;43.944;2023-11-21T04:46:05;98199.34;;;-4.92;75.68
69980;BME280;57318;56.232;43.944;2023-11-21T04:48:32;98206.34;;;-4.94;75.76
69980;BME280;57318;56.232;43.944;2023-11-21T04:50:58;98205.16;;;-4.85;75.61
69980;BME280;57318;56.232;43.944;2023-11-21T04:53:24;98204.22;;;-4.84;75.42
69980;BME280;57318;56.232;43.944;2023-11-21T04:55:49;98190.50;;;-4.86;75.34
69980;BME280;57318;56.232;43.944;2023-11-21T04:58:15;98195.69;;;-4.86;75.32
69980;BME280;57318;56.232;43.944;2023-11-21T05:00:41;98193.94;;;-4.86;75.40
69980;BME280;57318;56.232;43.944;2023-11-21T05:03:07;98192.91;;;-4.82;75.20
69980;BME280;57318;56.232;43.944;2023-11-21T05:05:33;98176.44;;;-4.79;75.29
69980;BME280;57318;56.232;43.944;2023-11-21T05:08:02;98187.63;;;-4.79;75.18
69980;BME280;57318;56.232;43.944;2023-11-21T05:10:28;98187.84;;;-4.85;75.00
69980;BME280;57318;56.232;43.944;2023-11-21T05:12:54;98195.50;;;-4.82;74.94
69980;BME280;57318;56.232;43.944;2023-11-21T05:15:21;98199.81;;;-4.81;75.14
69980;BME280;57318;56.232;43.944;2023-11-21T05:17:47;98204.06;;;-4.80;75.27
69980;BME280;57318;56.232;43.944;2023-11-21T05:20:17;98200.69;;;-4.82;74.87
69980;BME280;57318;56.232;43.944;2023-11-21T05:22:47;98205.75;;;-4.79;75.13
69980;BME280;57318;56.232;43.944;2023-11-21T05:25:14;98219.63;;;-4.80;74.73
69980;BME280;57318;56.232;43.944;2023-11-21T05:27:39;98229.31;;;-4.85;74.60
69980;BME280;57318;56.232;43.944;2023-11-21T05:30:06;98221.47;;;-4.83;74.90
69980;BME280;57318;56.232;43.944;2023-11-21T05:32:32;98223.25;;;-4.84;74.67
69980;BME280;57318;56.232;43.944;2023-11-21T05:34:57;98222.59;;;-4.91;74.72
69980;BME280;57318;56.232;43.944;2023-11-21T05:37:23;98215.84;;;-4.95;75.08
69980;BME280;57318;56.232;43.944;2023-11-21T05:39:51;98210.56;;;-4.92;75.28
69980;BME280;57318;56.232;43.944;2023-11-21T05:42:16;98219.00;;;-4.86;75.01
69980;BME280;57318;56.232;43.944;2023-11-21T05:44:42;98223.34;;;-4.87;75.25
69980;BME280;57318;56.232;43.944;2023-11-21T05:47:11;98216.59;;;-4.91;75.29
69980;BME280;57318;56.232;43.944;2023-11-21T05:49:38;98203.47;;;-4.86;75.34
69980;BME280;57318;56.232;43.944;2023-11-21T05:52:04;98200.69;;;-4.82;75.14
69980;BME280;57318;56.232;43.944;2023-11-21T05:54:30;98198.88;;;-4.80;75.29
69980;BME280;57318;56.232;43.944;2023-11-21T05:56:56;98201.66;;;-4.84;75.22
69980;BME280;57318;56.232;43.944;2023-11-21T05:59:23;98205.66;;;-4.76;75.27
69980;BME280;57318;56.232;43.944;2023-11-21T06:01:48;98207.47;;;-4.78;75.32
69980;BME280;57318;56.232;43.944;2023-11-21T06:04:14;98209.25;;;-4.80;75.08
69980;BME280;57318;56.232;43.944;2023-11-21T06:06:40;98225.72;;;-4.81;74.83
69980;BME280;57318;56.232;43.944;2023-11-21T06:09:05;98222.91;;;-4.75;75.02
69980;BME280;57318;56.232;43.944;2023-11-21T06:11:34;98235.00;;;-4.75;74.71
69980;BME280;57318;56.232;43.944;2023-11-21T06:13:59;98234.94;;;-4.74;75.02
69980;BME280;57318;56.232;43.944;2023-11-21T06:16:25;98220.97;;;-4.69;74.79
69980;BME280;57318;56.232;43.944;2023-11-21T06:18:51;98230.34;;;-4.67;74.95
69980;BME280;57318;56.232;43.944;2023-11-21T06:21:17;98218.97;;;-4.63;74.66
69980;BME280;57318;56.232;43.944;2023-11-21T06:23:43;98221.34;;;-4.57;74.77
69980;BME280;57318;56.232;43.944;2023-11-21T06:26:09;98211.69;;;-4.53;74.39
69980;BME280;57318;56.232;43.944;2023-11-21T06:28:35;98210.63;;;-4.47;74.18
69980;BME280;57318;56.232;43.944;2023-11-21T06:31:04;98214.00;;;-4.45;74.15
69980;BME280;57318;56.232;43.944;2023-11-21T06:33:31;98213.81;;;-4.41;74.20
69980;BME280;57318;56.232;43.944;2023-11-21T06:35:58;98212.00;;;-4.39;73.95
69980;BME280;57318;56.232;43.944;2023-11-21T06:38:23;98211.75;;;-4.32;74.04
69980;BME280;57318;56.232;43.944;2023-11-21T06:40:49;98211.56;;;-4.28;73.76
69980;BME280;57318;56.232;43.944;2023-11-21T06:43:15;98208.91;;;-4.26;73.69
69980;BME280;57318;56.232;43.944;2023-11-21T06:45:40;98213.03;;;-4.21;73.74
69980;BME280;57318;56.232;43.944;2023-11-21T06:48:06;98226.13;;;-4.24;73.51
69980;BME280;57318;56.232;43.944;2023-11-21T06:50:32;98228.41;;;-4.16;73.62
69980;BME280;57318;56.232;43.944;2023-11-21T06:52:58;98225.56;;;-4.10;73.67
69980;BME280;57318;56.232;43.944;2023-11-21T06:55:23;98235.16;;;-4.12;73.37
69980;BME280;57318;56.232;43.944;2023-11-21T06:57:49;98228.22;;;-4.11;73.00
69980;BME280;57318;56.232;43.944;2023-11-21T07:00:15;98229.91;;;-4.10;73.22
69980;BME280;57318;56.232;43.944;2023-11-21T07:02:43;98225.41;;;-4.05;73.19
69980;BME280;57318;56.232;43.944;2023-11-21T07:05:09;98214.03;;;-4.03;72.91
69980;BME280;57318;56.232;43.944;2023-11-21T07:07:35;98215.78;;;-4.03;72.82
69980;BME280;57318;56.232;43.944;2023-11-21T07:10:03;98227.00;;;-4.03;72.95
69980;BME280;57318;56.232;43.944;2023-11-21T07:12:31;98217.66;;;-4.07;72.53
69980;BME280;57318;56.232;43.944;2023-11-21T07:14:57;98214.97;;;-4.04;72.64
69980;BME280;57318;56.232;43.944;2023-11-21T07:17:23;98218.50;;;-4.06;72.58
69980;BME280;57318;56.232;43.944;2023-11-21T07:19:49;98216.56;;;-4.01;72.65
69980;BME280;57318;56.232;43.944;2023-11-21T07:22:15;98230.28;;;-3.97;72.74
69980;BME280;57318;56.232;43.944;2023-11-21T07:24:50;98235.59;;;-4.01;72.69
69980;BME280;57318;56.232;43.944;2023-11-21T07:27:19;98241.56;;;-3.99;72.31
69980;BME280;57318;56.232;43.944;2023-11-21T07:29:45;98254.53;;;-3.99;72.29
69980;BME280;57318;56.232;43.944;2023-11-21T07:32:11;98252.88;;;-4.01;71.98
69980;BME280;57318;56.232;43.944;2023-11-21T07:34:38;98258.03;;;-4.00;72.26
69980;BME280;57318;56.232;43.944;2023-11-21T07:37:04;98263.31;;;-4.03;72.35
69980;BME280;57318;56.232;43.944;2023-11-21T07:39:29;98265.97;;;-4.04;72.17
69980;BME280;57318;56.232;43.944;2023-11-21T07:41:55;98259.84;;;-4.02;71.99
69980;BME280;57318;56.232;43.944;2023-11-21T07:44:23;98265.81;;;-4.00;72.41
69980;BME280;57318;56.232;43.944;2023-11-21T07:46:49;98250.97;;;-3.96;71.89
69980;BME280;57318;56.232;43.944;2023-11-21T07:49:17;98249.88;;;-3.90;72.10
69980;BME280;57318;56.232;43.944;2023-11-21T07:51:45;98246.63;;;-3.95;71.79
69980;BME280;57318;56.232;43.944;2023-11-21T07:54:11;98242.09;;;-3.90;71.73
69980;BME280;57318;56.232;43.944;2023-11-21T07:56:37;98244.91;;;-3.96;71.67
69980;BME280;57318;56.232;43.944;2023-11-21T07:59:03;98249.81;;;-3.89;71.57
69980;BME280;57318;56.232;43.944;2023-11-21T08:01:29;98251.63;;;-3.91;71.25
69980;BME280;57318;56.232;43.944;2023-11-21T08:03:55;98258.53;;;-3.90;70.98
69980;BME280;57318;56.232;43.944;2023-11-21T08:06:24;98268.41;;;-4.00;71.17
69980;BME280;57318;56.232;43.944;2023-11-21T08:08:50;98263.16;;;-3.98;71.22
69980;BME280;57318;56.232;43.944;2023-11-21T08:11:16;98264.13;;;-4.01;71.20
69980;BME280;57318;56.232;43.944;2023-11-21T08:13:42;98271.78;;;-3.97;71.22
69980;BME280;57318;56.232;43.944;2023-11-21T08:16:07;98261.59;;;-4.02;71.22
69980;BME280;57318;56.232;43.944;2023-11-21T08:18:33;98270.28;;;-4.03;71.29
69980;BME280;57318;56.232;43.944;2023-11-21T08:20:59;98266.66;;;-3.99;71.68
69980;BME280;57318;56.232;43.944;2023-11-21T08:23:26;98264.91;;;-3.99;71.32
69980;BME280;57318;56.232;43.944;2023-11-21T08:25:52;98261.41;;;-3.97;71.42
69980;BME280;57318;56.232;43.944;2023-11-21T08:28:18;98263.72;;;-3.90;71.22
69980;BME280;57318;56.232;43.944;2023-11-21T08:30:44;98260.31;;;-3.92;71.20
69980;BME280;57318;56.232;43.944;2023-11-21T08:33:10;98267.19;;;-3.91;71.21
69980;BME280;57318;56.232;43.944;2023-11-21T08:35:39;98263.56;;;-3.87;71.40
69980;BME280;57318;56.232;43.944;2023-11-21T08:38:05;98265.38;;;-3.89;71.30
69980;BME280;57318;56.232;43.944;2023-11-21T08:40:31;98262.72;;;-3.87;71.53
69980;BME280;57318;56.232;43.944;2023-11-21T08:42:57;98273.09;;;-3.87;71.26
69980;BME280;57318;56.232;43.944;2023-11-21T08:45:24;98269.50;;;-3.83;71.57
69980;BME280;57318;56.232;43.944;2023-11-21T08:47:51;98256.63;;;-3.86;71.04
69980;BME280;57318;56.232;43.944;2023-11-21T08:50:17;98256.75;;;-3.89;71.18
69980;BME280;57318;56.232;43.944;2023-11-21T08:52:44;98249.81;;;-3.89;71.13
69980;BME280;57318;56.232;43.944;2023-11-21T08:55:10;98258.38;;;-3.87;71.30
69980;BME280;57318;56.232;43.944;2023-11-21T08:57:39;98263.44;;;-3.84;70.88
69980;BME280;57318;56.232;43.944;2023-11-21T09:00:07;98262.59;;;-3.84;71.29
69980;BME280;57318;56.232;43.944;2023-11-21T09:02:43;98258.97;;;-3.80;71.19
69980;BME280;57318;56.232;43.944;2023-11-21T09:05:12;98260.91;;;-3.85;70.59
69980;BME280;57318;56.232;43.944;2023-11-21T09:07:40;98258.06;;;-3.79;70.93
69980;BME280;57318;56.232;43.944;2023-11-21T09:10:08;98267.34;;;-3.73;71.12
69980;BME280;57318;56.232;43.944;2023-11-21T09:12:36;98257.75;;;-3.71;71.00
69980;BME280;57318;56.232;43.944;2023-11-21T09:15:04;98265.66;;;-3.74;70.87
69980;BME280;57318;56.232;43.944;2023-11-21T09:17:32;98265.59;;;-3.73;70.72
69980;BME280;57318;56.232;43.944;2023-11-21T09:19:58;98268.88;;;-3.68;70.62
69980;BME280;57318;56.232;43.944;2023-11-21T09:22:23;98267.09;;;-3.67;70.39
69980;BME280;57318;56.232;43.944;2023-11-21T09:24:55;98269.94;;;-3.73;70.42
69980;BME280;57318;56.232;43.944;2023-11-21T09:27:21;98262.47;;;-3.81;69.81
69980;BME280;57318;56.232;43.944;2023-11-21T09:29:47;98258.00;;;-3.77;70.17
69980;BME280;57318;56.232;43.944;2023-11-21T09:32:14;98259.22;;;-3.86;70.19
69980;BME280;57318;56.232;43.944;2023-11-21T09:34:41;98268.38;;;-3.77;70.54
69980;BME280;57318;56.232;43.944;2023-11-21T09:37:07;98269.38;;;-3.80;70.62
69980;BME280;57318;56.232;43.944;2023-11-21T09:39:34;98266.84;;;-3.82;70.39
69980;BME280;57318;56.232;43.944;2023-11-21T09:42:38;98264.19;;;-3.80;70.54
69980;BME280;57318;56.232;43.944;2023-11-21T09:45:14;98259.94;;;-3.83;70.88
69980;BME280;57318;56.232;43.944;2023-11-21T09:47:42;98264.41;;;-3.86;71.00
69980;BME280;57318;56.232;43.944;2023-11-21T09:50:09;98259.09;;;-3.83;70.96
69980;BME280;57318;56.232;43.944;2023-11-21T09:52:53;98257.41;;;-3.84;71.10
69980;BME280;57318;56.232;43.944;2023-11-21T09:55:21;98264.00;;;-3.75;70.72
69980;BME280;57318;56.232;43.944;2023-11-21T09:57:47;98256.97;;;-3.73;71.00
69980;BME280;57318;56.232;43.944;2023-11-21T10:00:16;98250.69;;;-3.68;70.91
69980;BME280;57318;56.232;43.944;2023-11-21T10:02:44;98254.19;;;-3.69;70.66
69980;BME280;57318;56.232;43.944;2023-11-21T10:05:10;98246.53;;;-3.72;70.81
69980;BME280;57318;56.232;43.944;2023-11-21T10:07:37;98248.41;;;-3.75;70.92
69980;BME280;57318;56.232;43.944;2023-11-21T10:10:05;98252.56;;;-3.71;70.73
69980;BME280;57318;56.232;43.944;2023-11-21T10:12:33;98255.34;;;-3.76;70.72
69980;BME280;57318;56.232;43.944;2023-11-21T10:15:00;98266.59;;;-3.75;70.72
69980;BME280;57318;56.232;43.944;2023-11-21T10:17:30;98270.91;;;-3.76;70.90
69980;BME280;57318;56.232;43.944;2023-11-21T10:20:03;98270.19;;;-3.79;70.93
69980;BME280;57318;56.232;43.944;2023-11-21T10:22:31;98270.31;;;-3.83;70.83
69980;BME280;57318;56.232;43.944;2023-11-21T10:24:57;98267.19;;;-3.91;70.95
69980;BME280;57318;56.232;43.944;2023-11-21T10:27:23;98263.09;;;-3.96;70.94
69980;BME280;57318;56.232;43.944;2023-11-21T10:29:52;98277.16;;;-4.02;70.97
69980;BME280;57318;56.232;43.944;2023-11-21T10:32:18;98270.09;;;-3.99;71.44
69980;BME280;57318;56.232;43.944;2023-11-21T10:34:55;98278.47;;;-3.92;71.07
69980;BME280;57318;56.232;43.944;2023-11-21T10:37:21;98270.94;;;-3.98;71.14
69980;BME280;57318;56.232;43.944;2023-11-21T10:39:47;98272.63;;;-3.97;70.89
69980;BME280;57318;56.232;43.944;2023-11-21T10:42:12;98279.69;;;-4.01;70.47
69980;BME280;57318;56.232;43.944;2023-11-21T10:44:38;98271.91;;;-4.01;70.95
69980;BME280;57318;56.232;43.944;2023-11-21T10:47:04;98280.59;;;-4.02;70.88
69980;BME280;57318;56.232;43.944;2023-11-21T10:49:30;98271.91;;;-4.01;71.17
69980;BME280;57318;56.232;43.944;2023-11-21T10:51:56;98271.16;;;-4.04;71.26
69980;BME280;57318;56.232;43.944;2023-11-21T10:54:24;98277.09;;;-4.01;70.93
69980;BME280;57318;56.232;43.944;2023-11-21T10:56:56;98282.22;;;-3.99;71.15
69980;BME280;57318;56.232;43.944;2023-11-21T10:59:22;98285.72;;;-4.00;71.18
69980;BME280;57318;56.232;43.944;2023-11-21T11:01:51;98283.06;;;-3.99;70.86
69980;BME280;57318;56.232;43.944;2023-11-21T11:04:19;98283.06;;;-3.99;71.07
69980;BME280;57318;56.232;43.944;2023-11-21T11:06:45;98278.34;;;-4.11;70.93
69980;BME280;57318;56.232;43.944;2023-11-21T11:09:17;98284.72;;;-4.18;71.25
69980;BME280;57318;56.232;43.944;2023-11-21T11:11:43;98286.66;;;-4.25;71.56
69980;BME280;57318;56.232;43.944;2023-11-21T11:14:13;98287.53;;;-4.24;71.67
69980;BME280;57318;56.232;43.944;2023-11-21T11:16:40;98293.63;;;-4.25;71.90
69980;BME280;57318;56.232;43.944;2023-11-21T11:19:07;98289.97;;;-4.20;71.94
69980;BME280;57318;56.232;43.944;2023-11-21T11:25:03;98285.78;;;-4.24;71.82
69980;BME280;57318;56.232;43.944;2023-11-21T11:29:52;98283.13;;;-4.22;72.12
69980;BME280;57318;56.232;43.944;2023-11-21T11:32:47;98279.88;;;-4.27;72.05
69980;BME280;57318;56.232;43.944;2023-11-21T11:35:26;98272.50;;;-4.38;72.11
69980;BME280;57318;56.232;43.944;2023-11-21T11:37:58;98275.31;;;-4.44;72.71
69980;BME280;57318;56.232;43.944;2023-11-21T11:40:38;98275.22;;;-4.41;72.69
69980;BME280;57318;56.232;43.944;2023-11-21T11:43:05;98285.63;;;-4.43;72.51
69980;BME280;57318;56.232;43.944;2023-11-21T11:45:34;98281.53;;;-4.48;72.91
69980;BME280;57318;56.232;43.944;2023-11-21T11:48:01;98276.22;;;-4.45;72.79
69980;BME280;57318;56.232;43.944;2023-11-21T11:50:29;98272.63;;;-4.41;72.79
69980;BME280;57318;56.232;43.944;2023-11-21T11:53:32;98268.25;;;-4.41;73.01
69980;BME280;57318;56.232;43.944;2023-11-21T11:56:18;98267.59;;;-4.46;72.84
69980;BME280;57318;56.232;43.944;2023-11-21T11:58:44;98276.88;;;-4.40;73.05
69980;BME280;57318;56.232;43.944;2023-11-21T12:01:11;98270.25;;;-4.47;72.83
69980;BME280;57318;56.232;43.944;2023-11-21T12:03:37;98280.75;;;-4.50;72.76
69980;BME280;57318;56.232;43.944;2023-11-21T12:06:05;98274.78;;;-4.53;72.98
69980;BME280;57318;56.232;43.944;2023-11-21T12:08:32;98280.69;;;-4.49;73.02
69980;BME280;57318;56.232;43.944;2023-11-21T12:10:58;98290.22;;;-4.49;73.13
69980;BME280;57318;56.232;43.944;2023-11-21T12:13:24;98275.63;;;-4.52;73.16
69980;BME280;57318;56.232;43.944;2023-11-21T12:15:50;98275.72;;;-4.55;72.99
69980;BME280;57318;56.232;43.944;2023-11-21T12:18:15;98277.13;;;-4.70;73.16
69980;BME280;57318;56.232;43.944;2023-11-21T12:20:41;98275.34;;;-4.68;73.08
69980;BME280;57318;56.232;43.944;2023-11-21T12:23:08;98280.53;;;-4.68;73.23
69980;BME280;57318;56.232;43.944;2023-11-21T12:25:34;98281.69;;;-4.77;73.18
69980;BME280;57318;56.232;43.944;2023-11-21T12:28:02;98285.00;;;-4.72;73.59
69980;BME280;57318;56.232;43.944;2023-11-21T12:30:30;98288.59;;;-4.76;73.37
69980;BME280;57318;56.232;43.944;2023-11-21T12:32:58;98286.81;;;-4.75;73.88
69980;BME280;57318;56.232;43.944;2023-11-21T12:35:28;98285.03;;;-4.73;73.58
69980;BME280;57318;56.232;43.944;2023-11-21T12:37:55;98280.97;;;-4.80;73.78
69980;BME280;57318;56.232;43.944;2023-11-21T12:40:25;98280.19;;;-4.82;73.91
69980;BME280;57318;56.232;43.944;2023-11-21T12:42:56;98277.59;;;-4.82;73.94
69980;BME280;57318;56.232;43.944;2023-11-21T12:45:27;98280.13;;;-4.81;73.95
69980;BME280;57318;56.232;43.944;2023-11-21T12:48:01;98281.91;;;-4.83;73.91
69980;BME280;57318;56.232;43.944;2023-11-21T12:50:33;98284.66;;;-4.87;73.83
69980;BME280;57318;56.232;43.944;2023-11-21T12:53:04;98292.34;;;-4.84;73.88
69980;BME280;57318;56.232;43.944;2023-11-21T12:55:34;98299.16;;;-4.82;74.10